createdAt,value
2018-06-20T00:01:32.390Z,66.46
2018-06-20T00:04:00.063Z,66.81
2018-06-20T00:06:27.829Z,67.04
2018-06-20T00:08:55.574Z,67.67
2018-06-20T00:11:24.357Z,67.54
2018-06-20T00:13:53.058Z,67.32
2018-06-20T00:16:20.739Z,67.26
2018-06-20T00:18:48.680Z,67.34
2018-06-20T00:21:16.383Z,67.35
2018-06-20T00:23:44.176Z,67.49
2018-06-20T00:26:11.875Z,68.01
2018-06-20T00:28:39.693Z,67.74
2018-06-20T00:31:07.505Z,67.75
2018-06-20T00:33:35.206Z,67.79
2018-06-20T00:36:03.381Z,68.91
2018-06-20T00:38:31.315Z,68.43
2018-06-20T00:40:59.289Z,68.72
2018-06-20T00:43:26.956Z,68.49
2018-06-20T00:45:54.623Z,68.80
2018-06-20T00:48:22.302Z,69.25
2018-06-20T00:50:50.033Z,68.95
2018-06-20T00:53:17.741Z,69.12
2018-06-20T00:55:50.952Z,69.13
2018-06-20T00:58:18.833Z,69.41
2018-06-20T01:00:46.538Z,69.61
2018-06-20T01:03:14.282Z,70.11
2018-06-20T01:05:42.014Z,70.16
2018-06-20T01:08:09.674Z,70.51
2018-06-20T01:10:37.375Z,70.07
2018-06-20T01:13:05.072Z,69.90
2018-06-20T01:15:32.802Z,69.86
2018-06-20T01:18:00.488Z,70.13
2018-06-20T01:20:28.177Z,70.02
2018-06-20T01:22:55.879Z,70.28
2018-06-20T01:25:23.562Z,69.54
2018-06-20T01:27:51.217Z,69.73
2018-06-20T01:30:18.910Z,69.96
2018-06-20T01:32:46.599Z,70.03
2018-06-20T01:35:14.289Z,70.75
2018-06-20T01:37:42.006Z,71.14
2018-06-20T01:40:09.678Z,71.06
2018-06-20T01:42:37.365Z,70.61
2018-06-20T01:45:05.038Z,70.28
2018-06-20T01:47:32.805Z,70.61
2018-06-20T01:50:00.527Z,70.53
2018-06-20T01:52:28.194Z,70.30
2018-06-20T01:54:55.887Z,70.89
2018-06-20T01:57:23.590Z,70.99
2018-06-20T01:59:51.259Z,70.76
2018-06-20T02:02:18.938Z,71.26
2018-06-20T02:04:46.613Z,71.98
2018-06-20T02:07:14.323Z,72.10
2018-06-20T02:09:42.015Z,71.58
2018-06-20T02:12:09.674Z,72.07
2018-06-20T02:14:37.367Z,72.68
2018-06-20T02:17:05.045Z,72.74
2018-06-20T02:19:32.786Z,72.39
2018-06-20T02:22:00.453Z,72.19
2018-06-20T02:24:28.139Z,72.96
2018-06-20T02:26:55.846Z,72.69
2018-06-20T02:29:23.549Z,72.51
2018-06-20T02:31:51.216Z,72.69
2018-06-20T02:34:18.883Z,73.41
2018-06-20T02:36:46.619Z,72.71
2018-06-20T02:39:14.218Z,72.73
2018-06-20T02:41:41.917Z,73.10
2018-06-20T02:44:09.575Z,73.50
2018-06-20T02:46:37.267Z,73.76
2018-06-20T02:49:05.134Z,74.24
2018-06-20T02:51:32.815Z,73.44
2018-06-20T02:54:00.467Z,73.81
2018-06-20T02:56:28.436Z,74.33
2018-06-20T02:58:56.095Z,74.11
2018-06-20T03:01:23.767Z,74.74
2018-06-20T03:03:51.456Z,74.58
2018-06-20T03:06:19.114Z,74.26
2018-06-20T03:08:51.333Z,74.27
2018-06-20T03:11:19.026Z,74.28
2018-06-20T03:13:46.727Z,73.79
2018-06-20T03:16:14.418Z,74.50
2018-06-20T03:18:42.106Z,74.68
2018-06-20T03:21:09.781Z,74.04
2018-06-20T03:23:37.455Z,73.99
2018-06-20T03:26:05.141Z,73.64
2018-06-20T03:28:32.831Z,74.08
2018-06-20T03:31:00.524Z,74.14
2018-06-20T03:33:28.251Z,74.06
2018-06-20T03:35:55.966Z,74.07
2018-06-20T03:38:23.711Z,74.57
2018-06-20T03:40:51.430Z,74.60
2018-06-20T03:43:19.078Z,74.42
2018-06-20T03:45:46.774Z,74.49
2018-06-20T03:48:14.423Z,74.64
2018-06-20T03:50:42.123Z,75.15
2018-06-20T03:53:09.791Z,74.29
2018-06-20T03:55:37.558Z,74.89
2018-06-20T03:58:05.234Z,73.98
2018-06-20T04:00:32.953Z,74.11
2018-06-20T04:03:00.658Z,72.97
2018-06-20T04:05:29.900Z,72.86
2018-06-20T04:07:57.894Z,73.57
2018-06-20T04:10:25.796Z,74.01
2018-06-20T04:12:53.478Z,74.13
2018-06-20T04:15:21.195Z,73.48
2018-06-20T04:17:48.871Z,72.75
2018-06-20T04:20:16.531Z,72.76
2018-06-20T04:22:44.276Z,72.57
2018-06-20T04:25:11.998Z,71.99
2018-06-20T04:27:40.734Z,71.17
2018-06-20T04:30:08.459Z,70.65
2018-06-20T04:32:36.342Z,70.98
2018-06-20T04:35:04.035Z,70.62
2018-06-20T04:37:31.731Z,70.37
2018-06-20T04:39:59.421Z,69.91
2018-06-20T04:42:27.098Z,69.00
2018-06-20T04:44:54.834Z,68.22
2018-06-20T04:47:22.540Z,67.78
2018-06-20T04:49:50.218Z,67.93
2018-06-20T04:52:17.938Z,67.24
2018-06-20T04:54:45.651Z,65.94
2018-06-20T04:57:13.326Z,64.96
2018-06-20T04:59:40.999Z,65.05
2018-06-20T05:02:08.690Z,65.00
2018-06-20T05:04:36.381Z,64.34
2018-06-20T05:07:04.049Z,64.30
2018-06-20T05:09:31.766Z,63.62
2018-06-20T05:11:59.435Z,63.19
2018-06-20T05:14:27.259Z,62.92
2018-06-20T05:16:54.930Z,62.87
2018-06-20T05:19:22.590Z,61.83
2018-06-20T05:21:50.303Z,61.84
2018-06-20T05:24:18.357Z,62.08
2018-06-20T05:26:46.019Z,61.16
2018-06-20T05:29:13.690Z,60.26
2018-06-20T05:31:41.398Z,61.01
2018-06-20T05:34:09.066Z,61.89
2018-06-20T05:36:36.784Z,60.88
2018-06-20T05:39:06.094Z,61.07
2018-06-20T05:41:33.783Z,60.48
2018-06-20T05:44:01.512Z,60.57
2018-06-20T05:46:29.204Z,59.33
2018-06-20T05:48:56.874Z,58.28
2018-06-20T05:51:24.571Z,58.33
2018-06-20T05:53:52.270Z,58.07
2018-06-20T05:56:20.045Z,57.92
2018-06-20T05:58:47.736Z,57.00
2018-06-20T06:01:15.455Z,55.78
2018-06-20T06:03:43.167Z,56.13
2018-06-20T06:06:12.878Z,55.20
2018-06-20T06:08:40.864Z,55.78
2018-06-20T06:11:08.821Z,54.83
2018-06-20T06:13:36.795Z,53.73
2018-06-20T06:16:04.496Z,52.32
2018-06-20T06:18:32.518Z,52.31
2018-06-20T06:21:00.251Z,52.32
2018-06-20T06:23:28.464Z,51.43
2018-06-20T06:25:56.620Z,51.45
2018-06-20T06:28:24.591Z,50.67
2018-06-20T06:30:52.326Z,51.33
2018-06-20T06:33:20.031Z,51.58
2018-06-20T06:35:47.796Z,50.00
2018-06-20T06:38:15.522Z,49.92
2018-06-20T06:40:43.209Z,50.15
2018-06-20T06:43:10.903Z,48.44
2018-06-20T06:45:38.607Z,47.66
2018-06-20T06:48:06.298Z,46.73
2018-06-20T06:50:34.367Z,46.48
2018-06-20T06:53:02.228Z,44.70
2018-06-20T06:55:29.988Z,44.43
2018-06-20T06:57:58.058Z,44.58
2018-06-20T07:00:26.153Z,43.92
2018-06-20T07:02:53.870Z,42.37
2018-06-20T07:05:22.605Z,40.86
2018-06-20T07:07:50.546Z,40.22
2018-06-20T07:10:18.290Z,40.02
2018-06-20T07:12:45.977Z,39.63
2018-06-20T07:15:13.686Z,38.16
2018-06-20T07:17:41.422Z,38.49
2018-06-20T07:20:09.151Z,38.00
2018-06-20T07:22:36.926Z,36.40
2018-06-20T07:25:04.995Z,35.73
2018-06-20T07:27:32.691Z,34.87
2018-06-20T07:30:00.447Z,34.54
2018-06-20T07:32:28.226Z,34.29
2018-06-20T07:34:56.370Z,33.46
2018-06-20T07:37:24.082Z,32.61
2018-06-20T07:39:51.814Z,32.00
2018-06-20T07:42:19.696Z,30.83
2018-06-20T07:44:47.396Z,30.62
2018-06-20T07:47:15.144Z,31.04
2018-06-20T07:49:42.813Z,32.85
2018-06-20T07:52:11.601Z,32.34
2018-06-20T07:54:39.275Z,30.02
2018-06-20T07:57:06.998Z,28.41
2018-06-20T07:59:40.446Z,29.89
2018-06-20T08:02:19.329Z,28.73
2018-06-20T08:04:52.712Z,28.23
2018-06-20T08:07:26.109Z,26.84
2018-06-20T08:09:59.311Z,27.23
2018-06-20T08:12:32.781Z,25.35
2018-06-20T08:15:06.270Z,24.29
2018-06-20T08:17:39.772Z,25.67
2018-06-20T08:20:13.947Z,26.14
2018-06-20T08:22:41.671Z,26.80
2018-06-20T08:25:09.390Z,24.26
2018-06-20T08:27:37.062Z,24.16
2018-06-20T08:30:06.070Z,25.32
2018-06-20T08:32:34.214Z,24.85
2018-06-20T08:35:02.414Z,25.36
2018-06-20T08:37:30.162Z,26.01
2018-06-20T08:39:58.024Z,25.91
2018-06-20T08:42:25.830Z,25.42
2018-06-20T08:44:54.195Z,25.17
2018-06-20T08:47:21.954Z,25.42
2018-06-20T08:49:49.623Z,24.67
2018-06-20T08:52:17.342Z,24.10
2018-06-20T08:54:45.031Z,23.45
2018-06-20T08:57:12.735Z,24.61
2018-06-20T08:59:40.430Z,22.96
2018-06-20T09:02:08.332Z,21.28
2018-06-20T09:04:41.674Z,21.66
2018-06-20T09:07:14.964Z,21.15
2018-06-20T09:09:48.304Z,20.76
2018-06-20T09:12:21.694Z,21.41
2018-06-20T09:14:55.080Z,21.99
2018-06-20T09:17:28.427Z,21.27
2018-06-20T09:19:56.871Z,21.22
2018-06-20T09:22:24.564Z,21.76
2018-06-20T09:24:52.282Z,20.50
2018-06-20T09:27:20.004Z,19.28
2018-06-20T09:29:47.679Z,20.00
2018-06-20T09:32:15.551Z,19.95
2018-06-20T09:34:43.730Z,19.87
2018-06-20T09:37:11.494Z,18.92
2018-06-20T09:39:39.243Z,20.00
2018-06-20T09:42:06.943Z,20.77
2018-06-20T09:44:34.621Z,20.73
2018-06-20T09:47:02.385Z,20.58
2018-06-20T09:49:30.068Z,19.94
2018-06-20T09:51:57.804Z,20.76
2018-06-20T09:54:25.650Z,20.11
2018-06-20T09:56:53.386Z,21.15
2018-06-20T09:59:26.719Z,20.69
2018-06-20T10:02:00.030Z,19.84
2018-06-20T10:04:33.340Z,20.48
2018-06-20T10:07:06.759Z,20.42
2018-06-20T10:09:39.953Z,21.53
2018-06-20T10:13:13.600Z,21.29
2018-06-20T10:15:41.290Z,21.87
2018-06-20T10:18:09.009Z,22.13
2018-06-20T10:20:36.707Z,22.25
2018-06-20T10:23:04.485Z,21.99
2018-06-20T10:25:32.179Z,21.49
2018-06-20T10:27:59.946Z,21.75
2018-06-20T10:30:27.667Z,20.42
2018-06-20T10:32:55.361Z,21.64
2018-06-20T10:35:23.487Z,20.36
2018-06-20T10:37:51.186Z,20.64
2018-06-20T10:40:19.307Z,20.74
2018-06-20T10:42:47.063Z,21.74
2018-06-20T10:45:20.434Z,21.98
2018-06-20T10:47:49.377Z,21.91
2018-06-20T10:50:17.117Z,22.72
2018-06-20T10:52:44.823Z,23.77
2018-06-20T10:55:13.987Z,23.01
2018-06-20T10:57:47.261Z,23.10
2018-06-20T11:00:20.679Z,21.13
2018-06-20T11:02:53.951Z,20.32
2018-06-20T11:05:27.383Z,21.19
2018-06-20T11:08:00.691Z,21.01
2018-06-20T11:10:35.221Z,22.23
2018-06-20T11:13:09.471Z,23.09
2018-06-20T11:15:37.418Z,23.97
2018-06-20T11:18:05.158Z,23.86
2018-06-20T11:20:38.578Z,24.28
2018-06-20T11:23:06.325Z,24.46
2018-06-20T11:25:34.022Z,25.16
2018-06-20T11:28:06.287Z,24.76
2018-06-20T11:30:34.047Z,23.97
2018-06-20T11:33:01.870Z,24.96
2018-06-20T11:35:29.709Z,26.13
2018-06-20T11:37:57.438Z,26.62
2018-06-20T11:40:25.171Z,27.27
2018-06-20T11:42:52.886Z,27.65
2018-06-20T11:45:20.572Z,25.81
2018-06-20T11:47:48.298Z,25.71
2018-06-20T11:50:16.015Z,26.46
2018-06-20T11:52:49.366Z,26.33
2018-06-20T11:55:22.542Z,26.83
2018-06-20T11:57:50.264Z,27.20
2018-06-20T12:00:23.574Z,27.70
2018-06-20T12:02:56.907Z,28.76
2018-06-20T12:05:30.144Z,28.40
2018-06-20T12:08:03.411Z,28.17
2018-06-20T12:10:36.753Z,28.48
2018-06-20T12:15:16.336Z,27.76
2018-06-20T12:17:49.644Z,28.78
2018-06-20T12:20:22.874Z,28.66
2018-06-20T12:22:56.071Z,29.10
2018-06-20T12:25:29.523Z,29.79
2018-06-20T12:28:02.969Z,26.94
2018-06-20T12:30:36.351Z,29.81
2018-06-20T12:33:09.735Z,28.75
2018-06-20T12:35:42.978Z,28.37
2018-06-20T12:38:16.140Z,28.93
2018-06-20T12:40:49.380Z,29.07
2018-06-20T12:43:22.766Z,29.51
2018-06-20T12:45:55.015Z,29.65
2018-06-20T12:48:22.784Z,29.71
2018-06-20T12:50:50.503Z,28.81
2018-06-20T12:53:18.201Z,29.49
2018-06-20T12:55:46.951Z,29.65
2018-06-20T12:58:14.670Z,29.77
2018-06-20T13:00:42.326Z,28.58
2018-06-20T13:03:10.030Z,29.16
2018-06-20T13:05:37.762Z,30.36
2018-06-20T13:08:05.425Z,29.04
2018-06-20T13:10:33.386Z,29.49
2018-06-20T13:13:01.065Z,29.59
2018-06-20T13:15:28.775Z,28.94
2018-06-20T13:17:56.591Z,29.47
2018-06-20T13:20:24.323Z,29.67
2018-06-20T13:22:51.995Z,30.74
2018-06-20T13:25:19.711Z,29.09
2018-06-20T13:27:48.127Z,30.49
2018-06-20T13:30:15.903Z,29.83
2018-06-20T13:32:49.334Z,31.78
2018-06-20T13:35:22.527Z,31.62
2018-06-20T13:37:56.022Z,29.05
2018-06-20T13:40:29.255Z,29.88
2018-06-20T13:43:02.828Z,31.41
2018-06-20T13:45:36.103Z,31.34
2018-06-20T13:48:09.467Z,30.99
2018-06-20T13:50:37.156Z,31.34
2018-06-20T13:53:04.846Z,30.62
2018-06-20T13:55:32.612Z,30.18
2018-06-20T13:58:00.375Z,29.73
2018-06-20T14:00:28.210Z,31.02
2018-06-20T14:02:56.060Z,31.28
2018-06-20T14:05:23.819Z,31.06
2018-06-20T14:07:51.514Z,31.61
2018-06-20T14:10:19.265Z,31.05
2018-06-20T14:12:46.963Z,30.76
2018-06-20T14:15:14.690Z,31.12
2018-06-20T14:17:42.403Z,31.51
2018-06-20T14:20:15.813Z,32.49
2018-06-20T14:22:43.523Z,32.30
2018-06-20T14:25:11.275Z,32.85
2018-06-20T14:27:38.964Z,32.06
2018-06-20T14:30:06.725Z,32.58
2018-06-20T14:32:40.208Z,32.03
2018-06-20T14:35:23.098Z,32.96
2018-06-20T14:37:56.396Z,33.56
2018-06-20T14:40:29.715Z,32.87
2018-06-20T14:43:02.676Z,33.16
2018-06-20T14:45:36.215Z,32.42
2018-06-20T14:48:03.898Z,33.40
2018-06-20T14:50:31.577Z,32.64
2018-06-20T14:52:59.294Z,32.13
2018-06-20T14:55:27.051Z,32.02
2018-06-20T14:57:54.755Z,32.92
2018-06-20T15:00:22.440Z,32.61
2018-06-20T15:02:50.179Z,33.01
2018-06-20T15:05:17.864Z,32.63
2018-06-20T15:07:45.604Z,32.92
2018-06-20T15:10:13.305Z,33.17
2018-06-20T15:12:40.991Z,32.82
2018-06-20T15:15:08.741Z,32.16
2018-06-20T15:17:36.454Z,32.96
2018-06-20T15:20:04.220Z,35.67
2018-06-20T15:22:37.679Z,35.07
2018-06-20T15:25:05.371Z,35.48
2018-06-20T15:27:38.671Z,34.89
2018-06-20T15:30:12.158Z,35.18
2018-06-20T15:32:45.415Z,35.54
2018-06-20T15:35:18.669Z,35.50
2018-06-20T15:37:52.103Z,34.01
2018-06-20T15:40:20.327Z,33.10
2018-06-20T15:42:48.020Z,33.97
2018-06-20T15:45:15.723Z,34.76
2018-06-20T15:47:43.446Z,35.23
2018-06-20T15:50:11.162Z,34.94
2018-06-20T15:52:38.843Z,34.59
2018-06-20T15:55:06.539Z,35.26
2018-06-20T15:57:34.270Z,35.44
2018-06-20T16:00:01.968Z,35.97
2018-06-20T16:02:29.732Z,35.25
2018-06-20T16:04:57.402Z,35.06
2018-06-20T16:07:25.182Z,34.87
2018-06-20T16:09:57.959Z,36.42
2018-06-20T16:12:26.434Z,35.86
2018-06-20T16:14:54.583Z,35.24
2018-06-20T16:17:22.256Z,35.33
2018-06-20T16:19:55.673Z,35.83
2018-06-20T16:22:29.131Z,36.06
2018-06-20T16:25:02.530Z,35.81
2018-06-20T16:27:36.051Z,36.58
2018-06-20T16:30:09.298Z,35.58
2018-06-20T16:32:37.187Z,36.30
2018-06-20T16:35:04.879Z,36.61
2018-06-20T16:37:32.614Z,35.80
2018-06-20T16:40:00.275Z,36.24
2018-06-20T16:42:28.330Z,36.24
2018-06-20T16:44:56.017Z,36.92
2018-06-20T16:47:23.718Z,38.02
2018-06-20T16:49:51.431Z,37.25
2018-06-20T16:52:19.173Z,37.20
2018-06-20T16:54:46.885Z,37.96
2018-06-20T16:57:14.596Z,37.22
2018-06-20T16:59:42.282Z,36.71
2018-06-20T17:02:15.642Z,37.04
2018-06-20T17:04:43.348Z,37.42
2018-06-20T17:07:15.624Z,37.80
2018-06-20T17:09:43.401Z,37.54
2018-06-20T17:12:16.741Z,38.18
2018-06-20T17:14:50.099Z,37.86
2018-06-20T17:17:24.584Z,37.88
2018-06-20T17:19:57.795Z,37.68
2018-06-20T17:22:31.084Z,37.65
2018-06-20T17:25:04.512Z,37.90
2018-06-20T17:27:32.357Z,38.63
2018-06-20T17:30:00.087Z,38.43
2018-06-20T17:32:27.819Z,37.81
2018-06-20T17:34:56.028Z,37.96
2018-06-20T17:37:23.706Z,38.55
2018-06-20T17:39:51.459Z,38.60
2018-06-20T17:42:19.838Z,38.68
2018-06-20T17:44:47.664Z,39.05
2018-06-20T17:47:15.371Z,39.71
2018-06-20T17:49:43.074Z,39.41
2018-06-20T17:52:10.821Z,39.33
2018-06-20T17:54:38.535Z,39.19
2018-06-20T17:57:06.661Z,39.35
2018-06-20T17:59:35.021Z,39.36
2018-06-20T18:02:02.747Z,39.71
2018-06-20T18:04:36.188Z,39.25
2018-06-20T18:07:09.650Z,39.49
2018-06-20T18:09:43.049Z,39.46
2018-06-20T18:12:16.300Z,39.95
2018-06-20T18:14:49.673Z,39.87
2018-06-20T18:17:17.421Z,40.89
2018-06-20T18:19:45.091Z,40.01
2018-06-20T18:22:12.806Z,40.88
2018-06-20T18:24:40.532Z,40.76
2018-06-20T18:27:08.319Z,41.15
2018-06-20T18:29:35.981Z,41.49
2018-06-20T18:32:03.825Z,41.82
2018-06-20T18:34:31.648Z,41.13
2018-06-20T18:36:59.406Z,41.77
2018-06-20T18:39:27.182Z,41.86
2018-06-20T18:41:54.864Z,42.08
2018-06-20T18:44:22.661Z,41.95
2018-06-20T18:46:50.378Z,42.23
2018-06-20T18:49:18.077Z,42.35
2018-06-20T18:51:45.771Z,42.77
2018-06-20T18:54:13.471Z,42.82
2018-06-20T18:56:41.204Z,43.13
2018-06-20T18:59:14.506Z,43.48
2018-06-20T19:01:47.824Z,42.78
2018-06-20T19:04:21.062Z,43.38
2018-06-20T19:06:54.613Z,43.29
2018-06-20T19:09:22.934Z,43.83
2018-06-20T19:11:50.575Z,44.67
2018-06-20T19:14:18.298Z,44.38
2018-06-20T19:16:45.942Z,44.91
2018-06-20T19:19:13.610Z,44.67
2018-06-20T19:21:41.291Z,44.63
2018-06-20T19:24:09.023Z,45.04
2018-06-20T19:26:36.690Z,45.54
2018-06-20T19:29:04.469Z,45.99
2018-06-20T19:31:32.249Z,45.54
2018-06-20T19:33:59.937Z,46.81
2018-06-20T19:36:27.657Z,46.67
2018-06-20T19:38:55.385Z,47.24
2018-06-20T19:41:23.109Z,47.89
2018-06-20T19:43:56.461Z,47.64
2018-06-20T19:46:24.150Z,48.40
2018-06-20T19:48:51.845Z,48.33
2018-06-20T19:51:19.675Z,48.60
2018-06-20T19:53:47.323Z,48.38
2018-06-20T19:56:15.315Z,48.37
2018-06-20T19:58:43.041Z,48.38
2018-06-20T20:01:10.703Z,48.56
2018-06-20T20:03:38.372Z,47.94
2018-06-20T20:06:06.158Z,47.24
2018-06-20T20:08:34.076Z,48.07
2018-06-20T20:11:01.675Z,47.99
2018-06-20T20:13:29.335Z,48.54
2018-06-20T20:15:57.077Z,48.53
2018-06-20T20:18:24.738Z,48.33
2018-06-20T20:20:52.408Z,48.02
2018-06-20T20:23:20.057Z,48.25
2018-06-20T20:25:47.726Z,48.26
2018-06-20T20:28:15.400Z,47.83
2018-06-20T20:30:43.003Z,48.04
2018-06-20T20:33:10.690Z,48.00
2018-06-20T20:35:38.395Z,48.17
2018-06-20T20:38:06.059Z,48.73
2018-06-20T20:40:33.743Z,48.36
2018-06-20T20:43:01.370Z,49.13
2018-06-20T20:45:29.098Z,49.27
2018-06-20T20:47:56.823Z,49.66
2018-06-20T20:50:24.555Z,49.75
2018-06-20T20:52:52.190Z,49.41
2018-06-20T20:55:19.858Z,49.51
2018-06-20T20:57:47.531Z,49.56
2018-06-20T21:00:15.240Z,49.79
2018-06-20T21:02:42.934Z,50.31
2018-06-20T21:05:10.614Z,50.38
2018-06-20T21:07:38.315Z,52.06
2018-06-20T21:10:06.011Z,52.72
2018-06-20T21:12:34.704Z,51.75
2018-06-20T21:15:02.703Z,51.37
2018-06-20T21:17:30.390Z,51.83
2018-06-20T21:19:58.097Z,51.25
2018-06-20T21:22:25.795Z,50.60
2018-06-20T21:24:53.786Z,50.09
2018-06-20T21:27:21.433Z,49.38
2018-06-20T21:29:49.054Z,50.06
2018-06-20T21:32:16.804Z,49.81
2018-06-20T21:34:44.458Z,50.24
2018-06-20T21:37:12.123Z,51.07
2018-06-20T21:39:40.143Z,49.89
2018-06-20T21:42:07.861Z,50.44
2018-06-20T21:44:35.493Z,51.11
2018-06-20T21:47:03.217Z,51.89
2018-06-20T21:49:30.902Z,51.65
2018-06-20T21:51:58.564Z,52.32
2018-06-20T21:54:26.189Z,52.58
2018-06-20T21:56:53.861Z,52.64
2018-06-20T21:59:21.572Z,53.17
2018-06-20T22:01:49.238Z,53.39
2018-06-20T22:04:16.974Z,54.10
2018-06-20T22:06:44.695Z,55.01
2018-06-20T22:09:12.390Z,54.48
2018-06-20T22:11:40.073Z,54.92
2018-06-20T22:14:09.168Z,54.25
2018-06-20T22:16:37.522Z,54.61
2018-06-20T22:19:05.333Z,55.99
2018-06-20T22:21:33.150Z,56.06
2018-06-20T22:24:00.771Z,55.87
2018-06-20T22:26:28.604Z,55.71
2018-06-20T22:28:56.542Z,55.65
2018-06-20T22:31:24.254Z,55.80
2018-06-20T22:33:52.266Z,55.86
2018-06-20T22:36:19.977Z,56.44
2018-06-20T22:38:47.587Z,56.63
2018-06-20T22:41:15.378Z,56.65
2018-06-20T22:43:43.052Z,56.39
2018-06-20T22:46:10.750Z,56.56
2018-06-20T22:48:38.367Z,56.31
2018-06-20T22:51:06.018Z,56.04
2018-06-20T22:53:33.670Z,56.25
2018-06-20T22:56:01.322Z,55.78
2018-06-20T22:58:29.024Z,55.86
2018-06-20T23:00:56.706Z,55.85
2018-06-20T23:03:24.410Z,55.63
2018-06-20T23:05:52.081Z,56.11
2018-06-20T23:08:19.958Z,56.41
2018-06-20T23:10:47.613Z,56.40
2018-06-20T23:13:15.345Z,56.10
2018-06-20T23:15:43.065Z,55.99
2018-06-20T23:18:10.770Z,56.40
2018-06-20T23:20:38.468Z,56.93
2018-06-20T23:23:06.174Z,57.63
2018-06-20T23:25:33.905Z,58.26
2018-06-20T23:28:01.558Z,58.71
2018-06-20T23:30:29.256Z,58.64
2018-06-20T23:32:56.926Z,58.53
2018-06-20T23:35:24.738Z,58.23
2018-06-20T23:37:52.398Z,58.10
2018-06-20T23:40:20.144Z,58.53
2018-06-20T23:42:47.834Z,58.42
2018-06-20T23:45:15.519Z,58.75
2018-06-20T23:47:43.259Z,58.40
2018-06-20T23:50:10.962Z,58.62
2018-06-20T23:52:38.669Z,59.06
2018-06-20T23:55:06.470Z,59.43
2018-06-20T23:57:34.395Z,59.42
